METAR Data
IDs: Format: Raw Decoded Include TAF

Data at: 1210 UTC 24 May 2022

KVCT 241151Z AUTO 16008KT 10SM FEW055 24/19 A2976 RMK AO2 SLP075 70004 T02390194 10267 20233 58006